Wicklow, Ireland
Current Conditions -  °F | °C
As of 1:00 AM on Wednesday 28 Jan 2015 (Local Time) from EIME Reporting Station
Scattered Clouds Scattered Clouds  
Wind Chill: 38°   Ceiling: Unl
Heat Index: 46°   Visibility: 6mi
Dew Point: 45°   Wind: 23mph
Humidity: 93%   Direction: 230°SW
Pressure: 29.8"   Gusts: NA
Location:  52.99°N, 6.05°W
Report Text: EIME 280100Z 23020KT 9999 SCT012 SCT036 08/07 Q1009
Loading
Personal Weather Stations






























Interactive Weather Map New forecast layout! Learn more

10-Day Weather Forecast

Advertisements
Track Severe Weather on mobile